sensor_id;sensor_type;location;lat;lon;timestamp;P1;durP1;ratioP1;P2;durP2;ratioP2
9823;SDS011;4951;50.778;7.196;2023-04-24T00:00:11;1.57;;;0.90;;
9823;SDS011;4951;50.778;7.196;2023-04-24T00:02:50;0.90;;;0.90;;
9823;SDS011;4951;50.778;7.196;2023-04-24T00:05:22;0.80;;;0.80;;
9823;SDS011;4951;50.778;7.196;2023-04-24T00:07:50;0.90;;;0.90;;
9823;SDS011;4951;50.778;7.196;2023-04-24T00:10:36;1.50;;;1.00;;
9823;SDS011;4951;50.778;7.196;2023-04-24T00:13:04;1.03;;;0.80;;
9823;SDS011;4951;50.778;7.196;2023-04-24T00:15:40;1.10;;;1.00;;
9823;SDS011;4951;50.778;7.196;2023-04-24T00:18:17;1.90;;;0.90;;
9823;SDS011;4951;50.778;7.196;2023-04-24T00:21:05;0.70;;;0.70;;
9823;SDS011;4951;50.778;7.196;2023-04-24T00:23:59;0.93;;;0.90;;
9823;SDS011;4951;50.778;7.196;2023-04-24T00:26:28;1.73;;;0.90;;
9823;SDS011;4951;50.778;7.196;2023-04-24T00:29:17;0.73;;;0.73;;
9823;SDS011;4951;50.778;7.196;2023-04-24T00:31:59;0.80;;;0.80;;
9823;SDS011;4951;50.778;7.196;2023-04-24T00:34:28;1.30;;;0.80;;
9823;SDS011;4951;50.778;7.196;2023-04-24T00:36:59;1.23;;;0.83;;
9823;SDS011;4951;50.778;7.196;2023-04-24T00:39:29;1.30;;;0.80;;
9823;SDS011;4951;50.778;7.196;2023-04-24T00:41:58;0.80;;;0.80;;
9823;SDS011;4951;50.778;7.196;2023-04-24T00:44:32;1.43;;;0.80;;
9823;SDS011;4951;50.778;7.196;2023-04-24T00:47:08;1.67;;;0.80;;
9823;SDS011;4951;50.778;7.196;2023-04-24T00:49:48;0.97;;;0.90;;
9823;SDS011;4951;50.778;7.196;2023-04-24T00:52:34;0.80;;;0.80;;
9823;SDS011;4951;50.778;7.196;2023-04-24T00:55:02;1.00;;;0.90;;
9823;SDS011;4951;50.778;7.196;2023-04-24T00:57:32;0.80;;;0.80;;
9823;SDS011;4951;50.778;7.196;2023-04-24T01:00:05;0.93;;;0.90;;
9823;SDS011;4951;50.778;7.196;2023-04-24T01:02:43;1.87;;;1.00;;
9823;SDS011;4951;50.778;7.196;2023-04-24T01:05:24;1.80;;;0.90;;
9823;SDS011;4951;50.778;7.196;2023-04-24T01:07:57;1.27;;;0.90;;
9823;SDS011;4951;50.778;7.196;2023-04-24T01:10:52;1.33;;;0.83;;
9823;SDS011;4951;50.778;7.196;2023-04-24T01:13:27;1.50;;;0.77;;
9823;SDS011;4951;50.778;7.196;2023-04-24T01:16:08;0.73;;;0.73;;
9823;SDS011;4951;50.778;7.196;2023-04-24T01:19:14;0.80;;;0.80;;
9823;SDS011;4951;50.778;7.196;2023-04-24T01:25:06;1.23;;;0.70;;
9823;SDS011;4951;50.778;7.196;2023-04-24T01:28:05;1.27;;;1.00;;
9823;SDS011;4951;50.778;7.196;2023-04-24T01:31:02;0.80;;;0.80;;
9823;SDS011;4951;50.778;7.196;2023-04-24T01:33:40;1.20;;;1.10;;
9823;SDS011;4951;50.778;7.196;2023-04-24T01:36:10;1.00;;;1.00;;
9823;SDS011;4951;50.778;7.196;2023-04-24T01:38:52;2.23;;;1.33;;
9823;SDS011;4951;50.778;7.196;2023-04-24T01:41:51;1.67;;;1.40;;
9823;SDS011;4951;50.778;7.196;2023-04-24T01:44:24;1.40;;;1.30;;
9823;SDS011;4951;50.778;7.196;2023-04-24T01:46:54;1.57;;;1.30;;
9823;SDS011;4951;50.778;7.196;2023-04-24T01:50:04;1.90;;;1.40;;
9823;SDS011;4951;50.778;7.196;2023-04-24T01:52:33;2.07;;;1.30;;
9823;SDS011;4951;50.778;7.196;2023-04-24T01:55:16;1.20;;;1.20;;
9823;SDS011;4951;50.778;7.196;2023-04-24T01:57:51;2.13;;;1.20;;
9823;SDS011;4951;50.778;7.196;2023-04-24T02:00:26;1.70;;;1.60;;
9823;SDS011;4951;50.778;7.196;2023-04-24T02:03:27;1.90;;;1.50;;
9823;SDS011;4951;50.778;7.196;2023-04-24T02:06:33;1.47;;;1.37;;
9823;SDS011;4951;50.778;7.196;2023-04-24T02:09:12;2.17;;;1.50;;
9823;SDS011;4951;50.778;7.196;2023-04-24T02:12:10;4.00;;;1.60;;
9823;SDS011;4951;50.778;7.196;2023-04-24T02:17:55;1.60;;;1.40;;
9823;SDS011;4951;50.778;7.196;2023-04-24T02:20:32;1.40;;;1.30;;
9823;SDS011;4951;50.778;7.196;2023-04-24T02:23:33;2.30;;;1.40;;
9823;SDS011;4951;50.778;7.196;2023-04-24T02:26:02;1.60;;;1.50;;
9823;SDS011;4951;50.778;7.196;2023-04-24T02:29:07;2.20;;;2.10;;
9823;SDS011;4951;50.778;7.196;2023-04-24T02:31:45;2.57;;;2.37;;
9823;SDS011;4951;50.778;7.196;2023-04-24T02:34:16;2.63;;;2.30;;
9823;SDS011;4951;50.778;7.196;2023-04-24T02:37:02;2.50;;;2.30;;
9823;SDS011;4951;50.778;7.196;2023-04-24T02:39:33;2.60;;;2.23;;
9823;SDS011;4951;50.778;7.196;2023-04-24T02:42:02;2.93;;;2.63;;
9823;SDS011;4951;50.778;7.196;2023-04-24T02:44:46;3.10;;;2.70;;
9823;SDS011;4951;50.778;7.196;2023-04-24T02:47:24;3.27;;;2.97;;
9823;SDS011;4951;50.778;7.196;2023-04-24T02:50:09;3.93;;;3.03;;
9823;SDS011;4951;50.778;7.196;2023-04-24T02:52:57;8.43;;;3.30;;
9823;SDS011;4951;50.778;7.196;2023-04-24T02:55:40;4.20;;;3.50;;
9823;SDS011;4951;50.778;7.196;2023-04-24T03:01:04;4.23;;;3.80;;
9823;SDS011;4951;50.778;7.196;2023-04-24T03:03:35;4.37;;;3.67;;
9823;SDS011;4951;50.778;7.196;2023-04-24T03:06:15;4.17;;;3.53;;
9823;SDS011;4951;50.778;7.196;2023-04-24T03:08:47;4.33;;;3.40;;
9823;SDS011;4951;50.778;7.196;2023-04-24T03:11:26;3.60;;;3.30;;
9823;SDS011;4951;50.778;7.196;2023-04-24T03:13:56;3.63;;;3.20;;
9823;SDS011;4951;50.778;7.196;2023-04-24T03:16:34;3.80;;;3.30;;
9823;SDS011;4951;50.778;7.196;2023-04-24T03:19:26;3.90;;;3.60;;
9823;SDS011;4951;50.778;7.196;2023-04-24T03:22:20;3.30;;;3.00;;
9823;SDS011;4951;50.778;7.196;2023-04-24T03:24:56;3.87;;;3.47;;
9823;SDS011;4951;50.778;7.196;2023-04-24T03:27:33;3.73;;;3.43;;
9823;SDS011;4951;50.778;7.196;2023-04-24T03:30:35;4.30;;;3.90;;
9823;SDS011;4951;50.778;7.196;2023-04-24T03:33:05;4.80;;;4.20;;
9823;SDS011;4951;50.778;7.196;2023-04-24T03:35:59;4.53;;;4.03;;
9823;SDS011;4951;50.778;7.196;2023-04-24T03:41:38;4.97;;;3.90;;
9823;SDS011;4951;50.778;7.196;2023-04-24T03:44:34;5.37;;;3.87;;
9823;SDS011;4951;50.778;7.196;2023-04-24T03:47:08;5.03;;;4.17;;
9823;SDS011;4951;50.778;7.196;2023-04-24T03:49:39;4.27;;;3.77;;
9823;SDS011;4951;50.778;7.196;2023-04-24T03:52:11;4.70;;;3.80;;
9823;SDS011;4951;50.778;7.196;2023-04-24T03:54:41;4.40;;;4.00;;
9823;SDS011;4951;50.778;7.196;2023-04-24T03:57:25;4.20;;;3.47;;
9823;SDS011;4951;50.778;7.196;2023-04-24T04:00:06;4.83;;;4.03;;
9823;SDS011;4951;50.778;7.196;2023-04-24T04:02:50;4.70;;;4.30;;
9823;SDS011;4951;50.778;7.196;2023-04-24T04:05:42;4.13;;;3.83;;
9823;SDS011;4951;50.778;7.196;2023-04-24T04:08:23;5.97;;;4.30;;
9823;SDS011;4951;50.778;7.196;2023-04-24T04:11:14;3.47;;;3.17;;
9823;SDS011;4951;50.778;7.196;2023-04-24T04:13:45;4.50;;;4.10;;
9823;SDS011;4951;50.778;7.196;2023-04-24T04:16:15;4.33;;;3.87;;
9823;SDS011;4951;50.778;7.196;2023-04-24T04:18:45;4.87;;;3.47;;
9823;SDS011;4951;50.778;7.196;2023-04-24T04:21:27;4.40;;;3.57;;
9823;SDS011;4951;50.778;7.196;2023-04-24T04:24:10;6.20;;;3.70;;
9823;SDS011;4951;50.778;7.196;2023-04-24T04:26:43;4.70;;;3.87;;
9823;SDS011;4951;50.778;7.196;2023-04-24T04:29:19;5.20;;;4.10;;
9823;SDS011;4951;50.778;7.196;2023-04-24T04:32:09;4.37;;;3.97;;
9823;SDS011;4951;50.778;7.196;2023-04-24T04:34:36;4.17;;;3.60;;
9823;SDS011;4951;50.778;7.196;2023-04-24T04:37:06;6.20;;;3.53;;
9823;SDS011;4951;50.778;7.196;2023-04-24T04:39:47;4.20;;;3.80;;
9823;SDS011;4951;50.778;7.196;2023-04-24T04:42:18;5.70;;;4.00;;
9823;SDS011;4951;50.778;7.196;2023-04-24T04:44:49;4.20;;;3.77;;
9823;SDS011;4951;50.778;7.196;2023-04-24T04:47:27;4.67;;;3.97;;
9823;SDS011;4951;50.778;7.196;2023-04-24T04:50:08;4.33;;;3.93;;
9823;SDS011;4951;50.778;7.196;2023-04-24T04:52:36;5.33;;;4.20;;
9823;SDS011;4951;50.778;7.196;2023-04-24T04:55:15;4.50;;;4.10;;
9823;SDS011;4951;50.778;7.196;2023-04-24T04:58:07;4.27;;;3.87;;
9823;SDS011;4951;50.778;7.196;2023-04-24T05:00:35;5.43;;;3.93;;
9823;SDS011;4951;50.778;7.196;2023-04-24T05:03:21;4.30;;;3.77;;
9823;SDS011;4951;50.778;7.196;2023-04-24T05:05:57;5.17;;;3.67;;
9823;SDS011;4951;50.778;7.196;2023-04-24T05:08:26;4.73;;;4.00;;
9823;SDS011;4951;50.778;7.196;2023-04-24T05:11:05;4.80;;;4.17;;
9823;SDS011;4951;50.778;7.196;2023-04-24T05:13:34;4.93;;;4.17;;
9823;SDS011;4951;50.778;7.196;2023-04-24T05:19:11;5.27;;;4.07;;
9823;SDS011;4951;50.778;7.196;2023-04-24T05:21:45;4.87;;;4.37;;
9823;SDS011;4951;50.778;7.196;2023-04-24T05:24:16;4.87;;;4.07;;
9823;SDS011;4951;50.778;7.196;2023-04-24T05:27:05;4.33;;;3.93;;
9823;SDS011;4951;50.778;7.196;2023-04-24T05:29:41;4.30;;;3.90;;
9823;SDS011;4951;50.778;7.196;2023-04-24T05:32:14;4.50;;;4.10;;
9823;SDS011;4951;50.778;7.196;2023-04-24T05:34:58;4.63;;;3.60;;
9823;SDS011;4951;50.778;7.196;2023-04-24T05:37:27;4.40;;;4.00;;
9823;SDS011;4951;50.778;7.196;2023-04-24T05:39:54;7.47;;;4.30;;
9823;SDS011;4951;50.778;7.196;2023-04-24T05:42:23;4.30;;;3.90;;
9823;SDS011;4951;50.778;7.196;2023-04-24T05:45:02;4.63;;;4.23;;
9823;SDS011;4951;50.778;7.196;2023-04-24T05:47:38;4.17;;;3.83;;
9823;SDS011;4951;50.778;7.196;2023-04-24T05:50:11;4.47;;;4.07;;
9823;SDS011;4951;50.778;7.196;2023-04-24T05:52:46;5.20;;;4.70;;
9823;SDS011;4951;50.778;7.196;2023-04-24T05:55:23;6.00;;;4.10;;
9823;SDS011;4951;50.778;7.196;2023-04-24T05:58:01;5.23;;;4.20;;
9823;SDS011;4951;50.778;7.196;2023-04-24T06:00:36;5.70;;;4.47;;
9823;SDS011;4951;50.778;7.196;2023-04-24T06:03:11;6.30;;;4.17;;
9823;SDS011;4951;50.778;7.196;2023-04-24T06:05:46;6.60;;;4.80;;
9823;SDS011;4951;50.778;7.196;2023-04-24T06:08:13;5.07;;;4.50;;
9823;SDS011;4951;50.778;7.196;2023-04-24T06:10:46;5.83;;;4.57;;
9823;SDS011;4951;50.778;7.196;2023-04-24T06:13:18;6.77;;;4.40;;
9823;SDS011;4951;50.778;7.196;2023-04-24T06:16:21;4.73;;;4.20;;
9823;SDS011;4951;50.778;7.196;2023-04-24T06:18:57;8.03;;;4.63;;
9823;SDS011;4951;50.778;7.196;2023-04-24T06:22:16;6.20;;;4.90;;
9823;SDS011;4951;50.778;7.196;2023-04-24T06:24:50;4.67;;;4.27;;
9823;SDS011;4951;50.778;7.196;2023-04-24T06:27:18;6.57;;;4.73;;
9823;SDS011;4951;50.778;7.196;2023-04-24T06:29:47;5.07;;;4.67;;
9823;SDS011;4951;50.778;7.196;2023-04-24T06:32:21;8.27;;;5.03;;
9823;SDS011;4951;50.778;7.196;2023-04-24T06:34:50;5.10;;;4.60;;
9823;SDS011;4951;50.778;7.196;2023-04-24T06:37:42;5.50;;;4.83;;
9823;SDS011;4951;50.778;7.196;2023-04-24T06:40:21;5.30;;;4.80;;
9823;SDS011;4951;50.778;7.196;2023-04-24T06:43:02;7.03;;;5.13;;
9823;SDS011;4951;50.778;7.196;2023-04-24T06:45:33;8.00;;;5.50;;
9823;SDS011;4951;50.778;7.196;2023-04-24T06:48:20;6.20;;;5.13;;
9823;SDS011;4951;50.778;7.196;2023-04-24T06:50:49;7.73;;;5.43;;
9823;SDS011;4951;50.778;7.196;2023-04-24T06:53:18;6.10;;;5.13;;
9823;SDS011;4951;50.778;7.196;2023-04-24T06:56:01;6.77;;;5.07;;
9823;SDS011;4951;50.778;7.196;2023-04-24T06:58:58;6.17;;;5.43;;
9823;SDS011;4951;50.778;7.196;2023-04-24T07:01:59;5.57;;;4.83;;
9823;SDS011;4951;50.778;7.196;2023-04-24T07:04:58;5.37;;;4.73;;
9823;SDS011;4951;50.778;7.196;2023-04-24T07:07:50;6.63;;;4.83;;
9823;SDS011;4951;50.778;7.196;2023-04-24T07:10:19;4.80;;;4.23;;
9823;SDS011;4951;50.778;7.196;2023-04-24T07:12:46;4.73;;;3.90;;
9823;SDS011;4951;50.778;7.196;2023-04-24T07:15:15;5.77;;;4.63;;
9823;SDS011;4951;50.778;7.196;2023-04-24T07:17:47;6.80;;;4.00;;
9823;SDS011;4951;50.778;7.196;2023-04-24T07:20:34;4.87;;;3.97;;
9823;SDS011;4951;50.778;7.196;2023-04-24T07:23:19;4.20;;;3.63;;
9823;SDS011;4951;50.778;7.196;2023-04-24T07:26:03;3.93;;;3.53;;
9823;SDS011;4951;50.778;7.196;2023-04-24T07:28:45;4.30;;;3.90;;
9823;SDS011;4951;50.778;7.196;2023-04-24T07:35:09;3.83;;;3.37;;
9823;SDS011;4951;50.778;7.196;2023-04-24T07:37:43;4.50;;;3.07;;
9823;SDS011;4951;50.778;7.196;2023-04-24T07:40:13;3.23;;;2.97;;
9823;SDS011;4951;50.778;7.196;2023-04-24T07:42:56;5.63;;;3.83;;
9823;SDS011;4951;50.778;7.196;2023-04-24T07:46:08;3.80;;;3.17;;
9823;SDS011;4951;50.778;7.196;2023-04-24T07:48:35;2.93;;;2.73;;
9823;SDS011;4951;50.778;7.196;2023-04-24T07:51:11;4.00;;;3.07;;
9823;SDS011;4951;50.778;7.196;2023-04-24T07:53:58;3.50;;;3.20;;
9823;SDS011;4951;50.778;7.196;2023-04-24T07:57:02;3.10;;;2.60;;
9823;SDS011;4951;50.778;7.196;2023-04-24T07:59:54;2.43;;;2.10;;
9823;SDS011;4951;50.778;7.196;2023-04-24T08:02:37;3.13;;;2.60;;
9823;SDS011;4951;50.778;7.196;2023-04-24T08:05:26;2.70;;;2.30;;
9823;SDS011;4951;50.778;7.196;2023-04-24T08:08:06;2.80;;;2.60;;
9823;SDS011;4951;50.778;7.196;2023-04-24T08:10:50;2.57;;;2.37;;
9823;SDS011;4951;50.778;7.196;2023-04-24T08:13:25;4.03;;;2.10;;
9823;SDS011;4951;50.778;7.196;2023-04-24T08:16:11;1.87;;;1.77;;
9823;SDS011;4951;50.778;7.196;2023-04-24T08:18:54;2.13;;;1.90;;
9823;SDS011;4951;50.778;7.196;2023-04-24T08:21:34;1.90;;;1.70;;
9823;SDS011;4951;50.778;7.196;2023-04-24T08:24:23;2.07;;;1.60;;
9823;SDS011;4951;50.778;7.196;2023-04-24T08:34:25;2.00;;;1.90;;
9823;SDS011;4951;50.778;7.196;2023-04-24T08:37:37;2.50;;;2.20;;
9823;SDS011;4951;50.778;7.196;2023-04-24T08:43:53;2.30;;;2.10;;
9823;SDS011;4951;50.778;7.196;2023-04-24T08:46:25;1.97;;;1.77;;
9823;SDS011;4951;50.778;7.196;2023-04-24T08:48:57;3.03;;;2.37;;
9823;SDS011;4951;50.778;7.196;2023-04-24T08:51:55;8.47;;;3.50;;
9823;SDS011;4951;50.778;7.196;2023-04-24T08:54:50;5.83;;;4.20;;
9823;SDS011;4951;50.778;7.196;2023-04-24T08:57:22;3.83;;;3.43;;
9823;SDS011;4951;50.778;7.196;2023-04-24T08:59:59;2.30;;;2.10;;
9823;SDS011;4951;50.778;7.196;2023-04-24T09:02:43;2.63;;;2.10;;
9823;SDS011;4951;50.778;7.196;2023-04-24T09:05:52;3.57;;;2.53;;
9823;SDS011;4951;50.778;7.196;2023-04-24T09:08:32;4.90;;;2.47;;
9823;SDS011;4951;50.778;7.196;2023-04-24T09:11:02;4.63;;;2.50;;
9823;SDS011;4951;50.778;7.196;2023-04-24T09:13:33;5.73;;;3.03;;
9823;SDS011;4951;50.778;7.196;2023-04-24T09:16:16;2.93;;;2.63;;
9823;SDS011;4951;50.778;7.196;2023-04-24T09:18:51;3.30;;;3.00;;
9823;SDS011;4951;50.778;7.196;2023-04-24T09:21:31;3.47;;;3.17;;
9823;SDS011;4951;50.778;7.196;2023-04-24T09:24:03;3.80;;;3.47;;
9823;SDS011;4951;50.778;7.196;2023-04-24T09:26:40;5.33;;;3.57;;
9823;SDS011;4951;50.778;7.196;2023-04-24T09:29:14;4.27;;;3.77;;
9823;SDS011;4951;50.778;7.196;2023-04-24T09:32:33;4.80;;;4.00;;
9823;SDS011;4951;50.778;7.196;2023-04-24T09:35:14;4.77;;;4.30;;
9823;SDS011;4951;50.778;7.196;2023-04-24T09:37:43;6.13;;;5.30;;
9823;SDS011;4951;50.778;7.196;2023-04-24T09:40:15;6.93;;;4.40;;
9823;SDS011;4951;50.778;7.196;2023-04-24T09:42:54;7.80;;;5.80;;
9823;SDS011;4951;50.778;7.196;2023-04-24T09:45:28;8.10;;;5.57;;
9823;SDS011;4951;50.778;7.196;2023-04-24T09:48:03;7.13;;;4.70;;
9823;SDS011;4951;50.778;7.196;2023-04-24T09:50:34;6.83;;;5.00;;
9823;SDS011;4951;50.778;7.196;2023-04-24T09:53:05;4.27;;;3.87;;
9823;SDS011;4951;50.778;7.196;2023-04-24T09:55:39;6.20;;;4.77;;
9823;SDS011;4951;50.778;7.196;2023-04-24T09:58:11;5.07;;;4.00;;
9823;SDS011;4951;50.778;7.196;2023-04-24T10:00:38;6.80;;;5.03;;
9823;SDS011;4951;50.778;7.196;2023-04-24T10:03:15;5.67;;;4.73;;
9823;SDS011;4951;50.778;7.196;2023-04-24T10:05:58;5.40;;;4.57;;
9823;SDS011;4951;50.778;7.196;2023-04-24T10:08:51;8.07;;;5.20;;
9823;SDS011;4951;50.778;7.196;2023-04-24T10:11:44;7.47;;;5.10;;
9823;SDS011;4951;50.778;7.196;2023-04-24T10:15:01;7.10;;;5.37;;
9823;SDS011;4951;50.778;7.196;2023-04-24T10:17:32;7.07;;;5.90;;
9823;SDS011;4951;50.778;7.196;2023-04-24T10:29:43;5.70;;;5.10;;
9823;SDS011;4951;50.778;7.196;2023-04-24T10:32:59;4.43;;;4.03;;
9823;SDS011;4951;50.778;7.196;2023-04-24T10:35:49;6.40;;;5.10;;
9823;SDS011;4951;50.778;7.196;2023-04-24T10:39:07;8.17;;;5.23;;
9823;SDS011;4951;50.778;7.196;2023-04-24T10:41:51;7.17;;;4.57;;
9823;SDS011;4951;50.778;7.196;2023-04-24T10:44:29;7.03;;;4.77;;
9823;SDS011;4951;50.778;7.196;2023-04-24T10:47:39;6.30;;;4.77;;
9823;SDS011;4951;50.778;7.196;2023-04-24T10:50:19;7.00;;;4.83;;
9823;SDS011;4951;50.778;7.196;2023-04-24T10:53:17;5.23;;;3.73;;
9823;SDS011;4951;50.778;7.196;2023-04-24T10:56:03;6.63;;;4.10;;
9823;SDS011;4951;50.778;7.196;2023-04-24T10:58:36;8.27;;;4.30;;
9823;SDS011;4951;50.778;7.196;2023-04-24T11:01:25;7.67;;;5.43;;
9823;SDS011;4951;50.778;7.196;2023-04-24T11:04:09;5.93;;;4.20;;
9823;SDS011;4951;50.778;7.196;2023-04-24T11:07:04;7.13;;;4.57;;
9823;SDS011;4951;50.778;7.196;2023-04-24T11:09:49;8.73;;;5.00;;
9823;SDS011;4951;50.778;7.196;2023-04-24T11:12:31;7.30;;;4.63;;
9823;SDS011;4951;50.778;7.196;2023-04-24T11:15:53;10.13;;;5.03;;
9823;SDS011;4951;50.778;7.196;2023-04-24T11:22:14;6.50;;;4.70;;
9823;SDS011;4951;50.778;7.196;2023-04-24T11:24:53;9.23;;;5.67;;
9823;SDS011;4951;50.778;7.196;2023-04-24T11:27:37;10.27;;;6.03;;
9823;SDS011;4951;50.778;7.196;2023-04-24T11:30:21;11.60;;;6.10;;
9823;SDS011;4951;50.778;7.196;2023-04-24T11:33:14;15.07;;;8.70;;
9823;SDS011;4951;50.778;7.196;2023-04-24T11:35:49;10.60;;;7.10;;
9823;SDS011;4951;50.778;7.196;2023-04-24T11:38:39;8.47;;;7.00;;
9823;SDS011;4951;50.778;7.196;2023-04-24T11:41:08;7.90;;;5.53;;
9823;SDS011;4951;50.778;7.196;2023-04-24T11:43:41;14.90;;;8.50;;
9823;SDS011;4951;50.778;7.196;2023-04-24T11:46:29;12.90;;;7.37;;
9823;SDS011;4951;50.778;7.196;2023-04-24T11:49:17;13.00;;;8.93;;
9823;SDS011;4951;50.778;7.196;2023-04-24T11:51:44;8.43;;;7.13;;
9823;SDS011;4951;50.778;7.196;2023-04-24T11:54:25;10.13;;;7.03;;
9823;SDS011;4951;50.778;7.196;2023-04-24T11:57:05;12.63;;;8.17;;
9823;SDS011;4951;50.778;7.196;2023-04-24T11:59:37;13.87;;;7.73;;
9823;SDS011;4951;50.778;7.196;2023-04-24T12:02:24;10.47;;;7.07;;
9823;SDS011;4951;50.778;7.196;2023-04-24T12:05:21;10.27;;;6.83;;
9823;SDS011;4951;50.778;7.196;2023-04-24T12:07:50;10.63;;;6.50;;
9823;SDS011;4951;50.778;7.196;2023-04-24T12:10:49;10.03;;;6.30;;
9823;SDS011;4951;50.778;7.196;2023-04-24T12:13:19;14.07;;;8.33;;
9823;SDS011;4951;50.778;7.196;2023-04-24T12:16:06;9.37;;;5.90;;
9823;SDS011;4951;50.778;7.196;2023-04-24T12:18:47;9.20;;;5.67;;
9823;SDS011;4951;50.778;7.196;2023-04-24T12:21:31;10.03;;;5.13;;
9823;SDS011;4951;50.778;7.196;2023-04-24T12:24:00;12.00;;;5.73;;
9823;SDS011;4951;50.778;7.196;2023-04-24T12:26:35;15.77;;;6.73;;
9823;SDS011;4951;50.778;7.196;2023-04-24T12:29:04;8.50;;;5.33;;
9823;SDS011;4951;50.778;7.196;2023-04-24T12:34:23;10.30;;;5.60;;
9823;SDS011;4951;50.778;7.196;2023-04-24T12:37:14;10.30;;;6.80;;
9823;SDS011;4951;50.778;7.196;2023-04-24T12:40:20;11.17;;;6.23;;
9823;SDS011;4951;50.778;7.196;2023-04-24T12:49:56;9.60;;;6.17;;
9823;SDS011;4951;50.778;7.196;2023-04-24T12:52:40;10.43;;;6.87;;
9823;SDS011;4951;50.778;7.196;2023-04-24T12:56:23;11.03;;;6.50;;
9823;SDS011;4951;50.778;7.196;2023-04-24T13:02:23;9.17;;;6.60;;
9823;SDS011;4951;50.778;7.196;2023-04-24T13:05:10;13.27;;;7.23;;
9823;SDS011;4951;50.778;7.196;2023-04-24T13:08:17;9.50;;;5.90;;
9823;SDS011;4951;50.778;7.196;2023-04-24T13:15:10;10.87;;;6.13;;
9823;SDS011;4951;50.778;7.196;2023-04-24T13:21:03;11.53;;;6.60;;
9823;SDS011;4951;50.778;7.196;2023-04-24T13:27:55;8.97;;;5.80;;
9823;SDS011;4951;50.778;7.196;2023-04-24T13:30:57;8.50;;;5.43;;
9823;SDS011;4951;50.778;7.196;2023-04-24T13:33:24;7.60;;;4.80;;
9823;SDS011;4951;50.778;7.196;2023-04-24T13:35:52;10.10;;;6.00;;
9823;SDS011;4951;50.778;7.196;2023-04-24T13:46:12;16.57;;;5.87;;
9823;SDS011;4951;50.778;7.196;2023-04-24T13:48:51;12.70;;;6.50;;
9823;SDS011;4951;50.778;7.196;2023-04-24T13:51:26;8.40;;;4.83;;
9823;SDS011;4951;50.778;7.196;2023-04-24T13:53:58;8.83;;;5.80;;
9823;SDS011;4951;50.778;7.196;2023-04-24T14:08:12;8.60;;;5.53;;
9823;SDS011;4951;50.778;7.196;2023-04-24T14:33:45;9.10;;;5.70;;
9823;SDS011;4951;50.778;7.196;2023-04-24T14:37:08;8.80;;;5.00;;
9823;SDS011;4951;50.778;7.196;2023-04-24T14:39:50;7.83;;;4.73;;
9823;SDS011;4951;50.778;7.196;2023-04-24T14:42:35;7.73;;;4.83;;
9823;SDS011;4951;50.778;7.196;2023-04-24T14:48:36;8.20;;;4.97;;
9823;SDS011;4951;50.778;7.196;2023-04-24T14:55:07;7.47;;;4.60;;
9823;SDS011;4951;50.778;7.196;2023-04-24T14:57:56;7.37;;;4.80;;
9823;SDS011;4951;50.778;7.196;2023-04-24T15:00:33;8.30;;;4.93;;
9823;SDS011;4951;50.778;7.196;2023-04-24T15:03:44;6.53;;;4.60;;
9823;SDS011;4951;50.778;7.196;2023-04-24T15:06:18;6.03;;;4.23;;
9823;SDS011;4951;50.778;7.196;2023-04-24T15:09:02;8.47;;;4.43;;
9823;SDS011;4951;50.778;7.196;2023-04-24T15:20:13;5.93;;;3.73;;
9823;SDS011;4951;50.778;7.196;2023-04-24T15:23:02;7.70;;;3.77;;
9823;SDS011;4951;50.778;7.196;2023-04-24T15:30:53;6.33;;;3.57;;
9823;SDS011;4951;50.778;7.196;2023-04-24T15:34:43;4.90;;;3.60;;
9823;SDS011;4951;50.778;7.196;2023-04-24T15:37:28;5.97;;;3.73;;
9823;SDS011;4951;50.778;7.196;2023-04-24T15:40:11;4.07;;;3.43;;
9823;SDS011;4951;50.778;7.196;2023-04-24T15:42:41;9.57;;;4.13;;
9823;SDS011;4951;50.778;7.196;2023-04-24T15:45:09;10.50;;;4.20;;
9823;SDS011;4951;50.778;7.196;2023-04-24T15:47:38;5.63;;;3.67;;
9823;SDS011;4951;50.778;7.196;2023-04-24T15:50:16;6.50;;;3.83;;
9823;SDS011;4951;50.778;7.196;2023-04-24T15:52:59;7.47;;;4.20;;
9823;SDS011;4951;50.778;7.196;2023-04-24T15:55:48;9.30;;;4.10;;
9823;SDS011;4951;50.778;7.196;2023-04-24T15:58:22;6.13;;;3.73;;
9823;SDS011;4951;50.778;7.196;2023-04-24T16:00:56;7.87;;;3.63;;
9823;SDS011;4951;50.778;7.196;2023-04-24T16:03:24;6.23;;;4.23;;
9823;SDS011;4951;50.778;7.196;2023-04-24T16:05:58;5.43;;;4.10;;
9823;SDS011;4951;50.778;7.196;2023-04-24T16:08:33;6.40;;;4.00;;
9823;SDS011;4951;50.778;7.196;2023-04-24T16:11:46;6.20;;;3.70;;
9823;SDS011;4951;50.778;7.196;2023-04-24T16:14:23;7.27;;;4.00;;
9823;SDS011;4951;50.778;7.196;2023-04-24T16:16:52;6.43;;;4.23;;
9823;SDS011;4951;50.778;7.196;2023-04-24T16:19:33;7.27;;;4.00;;
9823;SDS011;4951;50.778;7.196;2023-04-24T16:22:27;5.93;;;3.87;;
9823;SDS011;4951;50.778;7.196;2023-04-24T16:25:46;7.30;;;4.00;;
9823;SDS011;4951;50.778;7.196;2023-04-24T16:28:58;6.13;;;4.40;;
9823;SDS011;4951;50.778;7.196;2023-04-24T16:32:51;5.47;;;4.03;;
9823;SDS011;4951;50.778;7.196;2023-04-24T16:35:26;7.33;;;4.10;;
9823;SDS011;4951;50.778;7.196;2023-04-24T16:38:30;7.67;;;4.60;;
9823;SDS011;4951;50.778;7.196;2023-04-24T16:45:58;5.50;;;3.90;;
9823;SDS011;4951;50.778;7.196;2023-04-24T16:49:22;6.00;;;3.70;;
9823;SDS011;4951;50.778;7.196;2023-04-24T16:51:50;5.90;;;4.17;;
9823;SDS011;4951;50.778;7.196;2023-04-24T16:54:26;5.07;;;3.83;;
9823;SDS011;4951;50.778;7.196;2023-04-24T16:57:13;7.70;;;4.33;;
9823;SDS011;4951;50.778;7.196;2023-04-24T16:59:56;6.70;;;4.30;;
9823;SDS011;4951;50.778;7.196;2023-04-24T17:02:54;6.13;;;4.30;;
9823;SDS011;4951;50.778;7.196;2023-04-24T17:06:05;8.07;;;4.43;;
9823;SDS011;4951;50.778;7.196;2023-04-24T17:08:42;7.00;;;4.30;;
9823;SDS011;4951;50.778;7.196;2023-04-24T17:11:53;7.70;;;4.57;;
9823;SDS011;4951;50.778;7.196;2023-04-24T17:14:53;7.67;;;3.87;;
9823;SDS011;4951;50.778;7.196;2023-04-24T17:17:36;6.70;;;4.30;;
9823;SDS011;4951;50.778;7.196;2023-04-24T17:20:05;6.63;;;4.03;;
9823;SDS011;4951;50.778;7.196;2023-04-24T17:22:43;4.23;;;3.43;;
9823;SDS011;4951;50.778;7.196;2023-04-24T17:25:36;8.40;;;4.13;;
9823;SDS011;4951;50.778;7.196;2023-04-24T17:28:14;5.93;;;4.17;;
9823;SDS011;4951;50.778;7.196;2023-04-24T17:30:58;5.07;;;4.00;;
9823;SDS011;4951;50.778;7.196;2023-04-24T17:33:30;7.60;;;4.30;;
9823;SDS011;4951;50.778;7.196;2023-04-24T17:36:12;6.57;;;4.13;;
9823;SDS011;4951;50.778;7.196;2023-04-24T17:38:49;6.93;;;3.50;;
9823;SDS011;4951;50.778;7.196;2023-04-24T17:41:17;6.80;;;4.30;;
9823;SDS011;4951;50.778;7.196;2023-04-24T17:44:30;4.70;;;3.80;;
9823;SDS011;4951;50.778;7.196;2023-04-24T17:51:12;6.07;;;3.50;;
9823;SDS011;4951;50.778;7.196;2023-04-24T17:54:03;4.43;;;3.27;;
9823;SDS011;4951;50.778;7.196;2023-04-24T17:56:39;5.80;;;3.50;;
9823;SDS011;4951;50.778;7.196;2023-04-24T17:59:07;4.17;;;3.47;;
9823;SDS011;4951;50.778;7.196;2023-04-24T18:01:35;6.27;;;3.80;;
9823;SDS011;4951;50.778;7.196;2023-04-24T18:04:08;5.93;;;4.07;;
9823;SDS011;4951;50.778;7.196;2023-04-24T18:06:56;7.97;;;4.23;;
9823;SDS011;4951;50.778;7.196;2023-04-24T18:09:41;4.57;;;3.23;;
9823;SDS011;4951;50.778;7.196;2023-04-24T18:12:43;4.87;;;3.27;;
9823;SDS011;4951;50.778;7.196;2023-04-24T18:15:49;5.80;;;3.50;;
9823;SDS011;4951;50.778;7.196;2023-04-24T18:18:16;4.63;;;3.17;;
9823;SDS011;4951;50.778;7.196;2023-04-24T18:20:50;4.77;;;3.23;;
9823;SDS011;4951;50.778;7.196;2023-04-24T18:23:31;5.87;;;3.13;;
9823;SDS011;4951;50.778;7.196;2023-04-24T18:26:24;4.33;;;3.20;;
9823;SDS011;4951;50.778;7.196;2023-04-24T18:28:52;6.33;;;3.30;;
9823;SDS011;4951;50.778;7.196;2023-04-24T18:31:20;5.73;;;3.13;;
9823;SDS011;4951;50.778;7.196;2023-04-24T18:34:04;4.47;;;3.10;;
9823;SDS011;4951;50.778;7.196;2023-04-24T18:37:29;6.77;;;3.27;;
9823;SDS011;4951;50.778;7.196;2023-04-24T18:40:17;5.53;;;3.17;;
9823;SDS011;4951;50.778;7.196;2023-04-24T18:43:04;3.73;;;3.10;;
9823;SDS011;4951;50.778;7.196;2023-04-24T18:45:38;6.73;;;3.20;;
9823;SDS011;4951;50.778;7.196;2023-04-24T18:49:03;5.20;;;3.10;;
9823;SDS011;4951;50.778;7.196;2023-04-24T18:51:36;8.77;;;3.50;;
9823;SDS011;4951;50.778;7.196;2023-04-24T18:54:12;4.50;;;3.10;;
9823;SDS011;4951;50.778;7.196;2023-04-24T18:56:54;4.80;;;2.90;;
9823;SDS011;4951;50.778;7.196;2023-04-24T18:59:22;4.23;;;2.80;;
9823;SDS011;4951;50.778;7.196;2023-04-24T19:01:49;3.53;;;2.43;;
9823;SDS011;4951;50.778;7.196;2023-04-24T19:04:17;4.10;;;2.60;;
9823;SDS011;4951;50.778;7.196;2023-04-24T19:06:49;4.93;;;2.37;;